sensor_id;sensor_type;location;lat;lon;timestamp;P1;durP1;ratioP1;P2;durP2;ratioP2
9208;SDS011;4639;48.862;9.188;2023-08-12T00:01:41;203.15;;;190.10;;
9208;SDS011;4639;48.862;9.188;2023-08-12T00:04:06;201.95;;;189.38;;
9208;SDS011;4639;48.862;9.188;2023-08-12T00:06:32;184.52;;;172.80;;
9208;SDS011;4639;48.862;9.188;2023-08-12T00:08:57;177.30;;;165.82;;
9208;SDS011;4639;48.862;9.188;2023-08-12T00:11:23;203.00;;;189.95;;
9208;SDS011;4639;48.862;9.188;2023-08-12T00:13:48;183.23;;;171.52;;
9208;SDS011;4639;48.862;9.188;2023-08-12T00:16:14;200.00;;;187.38;;
9208;SDS011;4639;48.862;9.188;2023-08-12T00:18:39;176.20;;;164.93;;
9208;SDS011;4639;48.862;9.188;2023-08-12T00:21:08;151.82;;;142.85;;
9208;SDS011;4639;48.862;9.188;2023-08-12T00:23:38;166.80;;;156.80;;
9208;SDS011;4639;48.862;9.188;2023-08-12T00:26:09;175.48;;;164.98;;
9208;SDS011;4639;48.862;9.188;2023-08-12T00:28:35;179.07;;;168.25;;
9208;SDS011;4639;48.862;9.188;2023-08-12T00:31:01;179.02;;;167.93;;
9208;SDS011;4639;48.862;9.188;2023-08-12T00:33:26;199.98;;;187.68;;
9208;SDS011;4639;48.862;9.188;2023-08-12T00:35:52;199.30;;;187.10;;
9208;SDS011;4639;48.862;9.188;2023-08-12T00:38:17;186.57;;;175.05;;
9208;SDS011;4639;48.862;9.188;2023-08-12T00:40:43;180.68;;;169.27;;
9208;SDS011;4639;48.862;9.188;2023-08-12T00:43:09;177.75;;;166.60;;
9208;SDS011;4639;48.862;9.188;2023-08-12T00:45:34;181.48;;;169.60;;
9208;SDS011;4639;48.862;9.188;2023-08-12T00:48:01;186.82;;;174.88;;
9208;SDS011;4639;48.862;9.188;2023-08-12T00:50:28;144.25;;;135.23;;
9208;SDS011;4639;48.862;9.188;2023-08-12T00:52:54;161.18;;;151.20;;
9208;SDS011;4639;48.862;9.188;2023-08-12T00:55:20;172.23;;;161.57;;
9208;SDS011;4639;48.862;9.188;2023-08-12T00:57:46;149.80;;;140.18;;
9208;SDS011;4639;48.862;9.188;2023-08-12T01:00:12;169.13;;;158.52;;
9208;SDS011;4639;48.862;9.188;2023-08-12T01:02:38;172.93;;;162.10;;
9208;SDS011;4639;48.862;9.188;2023-08-12T01:05:04;183.30;;;171.63;;
9208;SDS011;4639;48.862;9.188;2023-08-12T01:07:30;182.63;;;171.30;;
9208;SDS011;4639;48.862;9.188;2023-08-12T01:09:56;165.85;;;155.52;;
9208;SDS011;4639;48.862;9.188;2023-08-12T01:12:26;171.27;;;160.52;;
9208;SDS011;4639;48.862;9.188;2023-08-12T01:14:59;178.95;;;167.52;;
9208;SDS011;4639;48.862;9.188;2023-08-12T01:17:32;162.10;;;151.63;;
9208;SDS011;4639;48.862;9.188;2023-08-12T01:19:59;166.05;;;155.60;;
9208;SDS011;4639;48.862;9.188;2023-08-12T01:22:27;161.05;;;151.10;;
9208;SDS011;4639;48.862;9.188;2023-08-12T01:24:54;163.23;;;152.55;;
9208;SDS011;4639;48.862;9.188;2023-08-12T01:27:20;150.00;;;140.57;;
9208;SDS011;4639;48.862;9.188;2023-08-12T01:29:46;155.82;;;145.98;;
9208;SDS011;4639;48.862;9.188;2023-08-12T01:35:00;158.82;;;149.13;;
9208;SDS011;4639;48.862;9.188;2023-08-12T01:37:35;155.63;;;146.15;;
9208;SDS011;4639;48.862;9.188;2023-08-12T01:40:04;140.85;;;132.10;;
9208;SDS011;4639;48.862;9.188;2023-08-12T01:42:34;151.90;;;142.48;;
9208;SDS011;4639;48.862;9.188;2023-08-12T01:45:01;155.98;;;146.05;;
9208;SDS011;4639;48.862;9.188;2023-08-12T01:47:27;145.35;;;136.55;;
9208;SDS011;4639;48.862;9.188;2023-08-12T01:49:53;144.90;;;135.98;;
9208;SDS011;4639;48.862;9.188;2023-08-12T01:52:20;79.53;;;74.53;;
9208;SDS011;4639;48.862;9.188;2023-08-12T01:54:45;112.80;;;105.72;;
9208;SDS011;4639;48.862;9.188;2023-08-12T01:57:11;125.05;;;117.03;;
9208;SDS011;4639;48.862;9.188;2023-08-12T01:59:37;116.00;;;108.57;;
9208;SDS011;4639;48.862;9.188;2023-08-12T02:02:03;104.82;;;98.10;;
9208;SDS011;4639;48.862;9.188;2023-08-12T02:04:29;149.02;;;139.80;;
9208;SDS011;4639;48.862;9.188;2023-08-12T02:06:55;142.57;;;134.00;;
9208;SDS011;4639;48.862;9.188;2023-08-12T02:09:21;145.25;;;136.57;;
9208;SDS011;4639;48.862;9.188;2023-08-12T02:11:47;149.10;;;140.05;;
9208;SDS011;4639;48.862;9.188;2023-08-12T02:14:13;145.52;;;136.57;;
9208;SDS011;4639;48.862;9.188;2023-08-12T02:16:39;142.93;;;134.23;;
9208;SDS011;4639;48.862;9.188;2023-08-12T02:19:05;148.48;;;139.50;;
9208;SDS011;4639;48.862;9.188;2023-08-12T02:21:30;148.48;;;139.65;;
9208;SDS011;4639;48.862;9.188;2023-08-12T02:23:56;141.30;;;132.82;;
9208;SDS011;4639;48.862;9.188;2023-08-12T02:26:25;161.73;;;151.98;;
9208;SDS011;4639;48.862;9.188;2023-08-12T02:28:50;159.63;;;150.07;;
9208;SDS011;4639;48.862;9.188;2023-08-12T02:31:16;129.55;;;121.82;;
9208;SDS011;4639;48.862;9.188;2023-08-12T02:33:42;141.80;;;133.18;;
9208;SDS011;4639;48.862;9.188;2023-08-12T02:36:08;160.60;;;150.40;;
9208;SDS011;4639;48.862;9.188;2023-08-12T02:38:33;160.95;;;151.25;;
9208;SDS011;4639;48.862;9.188;2023-08-12T02:40:59;150.00;;;140.85;;
9208;SDS011;4639;48.862;9.188;2023-08-12T02:43:24;153.88;;;144.80;;
9208;SDS011;4639;48.862;9.188;2023-08-12T02:45:50;134.85;;;126.63;;
9208;SDS011;4639;48.862;9.188;2023-08-12T02:48:16;134.18;;;125.93;;
9208;SDS011;4639;48.862;9.188;2023-08-12T02:50:42;130.13;;;122.40;;
9208;SDS011;4639;48.862;9.188;2023-08-12T02:53:07;134.13;;;126.25;;
9208;SDS011;4639;48.862;9.188;2023-08-12T02:55:33;135.57;;;127.53;;
9208;SDS011;4639;48.862;9.188;2023-08-12T02:57:59;129.95;;;122.18;;
9208;SDS011;4639;48.862;9.188;2023-08-12T03:00:25;133.73;;;125.63;;
9208;SDS011;4639;48.862;9.188;2023-08-12T03:02:51;139.80;;;131.38;;
9208;SDS011;4639;48.862;9.188;2023-08-12T03:05:16;90.07;;;84.57;;
9208;SDS011;4639;48.862;9.188;2023-08-12T03:07:42;105.13;;;98.90;;
9208;SDS011;4639;48.862;9.188;2023-08-12T03:10:07;106.00;;;99.70;;
9208;SDS011;4639;48.862;9.188;2023-08-12T03:12:34;109.05;;;102.65;;
9208;SDS011;4639;48.862;9.188;2023-08-12T03:17:29;106.25;;;100.03;;
9208;SDS011;4639;48.862;9.188;2023-08-12T03:19:56;104.45;;;98.13;;
9208;SDS011;4639;48.862;9.188;2023-08-12T03:22:24;102.65;;;96.35;;
9208;SDS011;4639;48.862;9.188;2023-08-12T03:24:50;116.22;;;109.30;;
9208;SDS011;4639;48.862;9.188;2023-08-12T03:27:16;119.30;;;112.40;;
9208;SDS011;4639;48.862;9.188;2023-08-12T03:29:41;111.78;;;105.20;;
9208;SDS011;4639;48.862;9.188;2023-08-12T03:32:07;121.95;;;114.72;;
9208;SDS011;4639;48.862;9.188;2023-08-12T03:34:32;119.35;;;112.22;;
9208;SDS011;4639;48.862;9.188;2023-08-12T03:36:58;120.85;;;113.45;;
9208;SDS011;4639;48.862;9.188;2023-08-12T03:39:24;119.25;;;112.25;;
9208;SDS011;4639;48.862;9.188;2023-08-12T03:41:49;115.57;;;108.43;;
9208;SDS011;4639;48.862;9.188;2023-08-12T03:44:18;115.20;;;108.53;;
9208;SDS011;4639;48.862;9.188;2023-08-12T03:46:44;115.13;;;108.45;;
9208;SDS011;4639;48.862;9.188;2023-08-12T03:49:09;125.20;;;117.78;;
9208;SDS011;4639;48.862;9.188;2023-08-12T03:51:35;121.15;;;113.88;;
9208;SDS011;4639;48.862;9.188;2023-08-12T03:54:00;117.28;;;110.40;;
9208;SDS011;4639;48.862;9.188;2023-08-12T03:56:26;115.13;;;107.97;;
9208;SDS011;4639;48.862;9.188;2023-08-12T03:58:51;118.32;;;111.53;;
9208;SDS011;4639;48.862;9.188;2023-08-12T04:01:17;120.53;;;113.53;;
9208;SDS011;4639;48.862;9.188;2023-08-12T04:03:42;118.03;;;111.03;;
9208;SDS011;4639;48.862;9.188;2023-08-12T04:06:08;122.78;;;115.47;;
9208;SDS011;4639;48.862;9.188;2023-08-12T04:08:34;124.13;;;116.47;;
9208;SDS011;4639;48.862;9.188;2023-08-12T04:10:59;134.65;;;126.55;;
9208;SDS011;4639;48.862;9.188;2023-08-12T04:13:25;120.18;;;113.15;;
9208;SDS011;4639;48.862;9.188;2023-08-12T04:15:51;120.55;;;113.03;;
9208;SDS011;4639;48.862;9.188;2023-08-12T04:18:18;120.10;;;112.85;;
9208;SDS011;4639;48.862;9.188;2023-08-12T04:20:48;107.97;;;101.75;;
9208;SDS011;4639;48.862;9.188;2023-08-12T04:23:14;117.22;;;110.50;;
9208;SDS011;4639;48.862;9.188;2023-08-12T04:25:42;122.65;;;115.28;;
9208;SDS011;4639;48.862;9.188;2023-08-12T04:28:09;145.48;;;136.68;;
9208;SDS011;4639;48.862;9.188;2023-08-12T04:30:34;167.68;;;156.75;;
9208;SDS011;4639;48.862;9.188;2023-08-12T04:33:00;183.00;;;171.70;;
9208;SDS011;4639;48.862;9.188;2023-08-12T04:35:26;154.70;;;144.60;;
9208;SDS011;4639;48.862;9.188;2023-08-12T04:37:51;150.18;;;140.63;;
9208;SDS011;4639;48.862;9.188;2023-08-12T04:40:17;136.30;;;127.72;;
9208;SDS011;4639;48.862;9.188;2023-08-12T04:42:42;142.77;;;133.73;;
9208;SDS011;4639;48.862;9.188;2023-08-12T04:45:08;129.90;;;121.80;;
9208;SDS011;4639;48.862;9.188;2023-08-12T04:47:34;142.30;;;133.40;;
9208;SDS011;4639;48.862;9.188;2023-08-12T04:49:59;118.50;;;111.38;;
9208;SDS011;4639;48.862;9.188;2023-08-12T04:52:25;128.70;;;121.13;;
9208;SDS011;4639;48.862;9.188;2023-08-12T04:54:53;132.02;;;123.95;;
9208;SDS011;4639;48.862;9.188;2023-08-12T04:57:18;132.85;;;124.65;;
9208;SDS011;4639;48.862;9.188;2023-08-12T04:59:44;124.38;;;116.93;;
9208;SDS011;4639;48.862;9.188;2023-08-12T05:02:09;116.03;;;109.05;;
9208;SDS011;4639;48.862;9.188;2023-08-12T05:04:35;119.05;;;111.78;;
9208;SDS011;4639;48.862;9.188;2023-08-12T05:07:01;133.07;;;124.95;;
9208;SDS011;4639;48.862;9.188;2023-08-12T05:09:27;125.82;;;118.35;;
9208;SDS011;4639;48.862;9.188;2023-08-12T05:11:52;122.47;;;114.90;;
9208;SDS011;4639;48.862;9.188;2023-08-12T05:14:18;125.38;;;117.60;;
9208;SDS011;4639;48.862;9.188;2023-08-12T05:16:43;126.85;;;118.75;;
9208;SDS011;4639;48.862;9.188;2023-08-12T05:19:09;148.40;;;139.23;;
9208;SDS011;4639;48.862;9.188;2023-08-12T05:21:34;145.30;;;136.32;;
9208;SDS011;4639;48.862;9.188;2023-08-12T05:24:00;165.68;;;155.07;;
9208;SDS011;4639;48.862;9.188;2023-08-12T05:26:26;170.90;;;160.88;;
9208;SDS011;4639;48.862;9.188;2023-08-12T05:28:51;156.73;;;147.45;;
9208;SDS011;4639;48.862;9.188;2023-08-12T05:31:17;153.73;;;144.68;;
9208;SDS011;4639;48.862;9.188;2023-08-12T05:33:42;175.80;;;165.27;;
9208;SDS011;4639;48.862;9.188;2023-08-12T05:36:08;201.93;;;189.93;;
9208;SDS011;4639;48.862;9.188;2023-08-12T05:38:34;165.70;;;156.07;;
9208;SDS011;4639;48.862;9.188;2023-08-12T05:40:59;171.13;;;161.32;;
9208;SDS011;4639;48.862;9.188;2023-08-12T05:43:25;170.82;;;161.00;;
9208;SDS011;4639;48.862;9.188;2023-08-12T05:45:50;159.55;;;149.85;;
9208;SDS011;4639;48.862;9.188;2023-08-12T05:48:16;164.55;;;154.73;;
9208;SDS011;4639;48.862;9.188;2023-08-12T05:50:42;135.30;;;127.35;;
9208;SDS011;4639;48.862;9.188;2023-08-12T05:53:08;125.68;;;118.05;;
9208;SDS011;4639;48.862;9.188;2023-08-12T05:55:34;120.97;;;113.03;;
9208;SDS011;4639;48.862;9.188;2023-08-12T05:58:02;74.97;;;70.28;;
9208;SDS011;4639;48.862;9.188;2023-08-12T06:00:28;83.22;;;77.88;;
9208;SDS011;4639;48.862;9.188;2023-08-12T06:02:53;92.60;;;86.53;;
9208;SDS011;4639;48.862;9.188;2023-08-12T06:05:19;28.08;;;25.90;;
9208;SDS011;4639;48.862;9.188;2023-08-12T06:07:45;26.27;;;24.63;;
9208;SDS011;4639;48.862;9.188;2023-08-12T06:10:10;30.83;;;28.40;;
9208;SDS011;4639;48.862;9.188;2023-08-12T06:12:36;33.88;;;31.45;;
9208;SDS011;4639;48.862;9.188;2023-08-12T06:15:01;31.25;;;28.95;;
9208;SDS011;4639;48.862;9.188;2023-08-12T06:17:27;36.88;;;34.33;;
9208;SDS011;4639;48.862;9.188;2023-08-12T06:19:52;43.17;;;40.20;;
9208;SDS011;4639;48.862;9.188;2023-08-12T06:22:18;46.17;;;43.08;;
9208;SDS011;4639;48.862;9.188;2023-08-12T06:24:44;54.90;;;51.50;;
9208;SDS011;4639;48.862;9.188;2023-08-12T06:27:09;69.28;;;65.07;;
9208;SDS011;4639;48.862;9.188;2023-08-12T06:29:35;60.75;;;57.05;;
9208;SDS011;4639;48.862;9.188;2023-08-12T06:32:00;66.80;;;62.53;;
9208;SDS011;4639;48.862;9.188;2023-08-12T06:34:26;64.75;;;60.83;;
9208;SDS011;4639;48.862;9.188;2023-08-12T06:36:51;68.05;;;63.55;;
9208;SDS011;4639;48.862;9.188;2023-08-12T06:39:17;69.70;;;65.40;;
9208;SDS011;4639;48.862;9.188;2023-08-12T06:41:42;66.18;;;62.00;;
9208;SDS011;4639;48.862;9.188;2023-08-12T06:44:08;62.17;;;58.13;;
9208;SDS011;4639;48.862;9.188;2023-08-12T06:46:33;56.58;;;52.80;;
9208;SDS011;4639;48.862;9.188;2023-08-12T06:48:59;56.00;;;52.00;;
9208;SDS011;4639;48.862;9.188;2023-08-12T06:51:24;44.47;;;41.70;;
9208;SDS011;4639;48.862;9.188;2023-08-12T06:53:50;37.13;;;34.47;;
9208;SDS011;4639;48.862;9.188;2023-08-12T06:56:16;33.28;;;30.67;;
9208;SDS011;4639;48.862;9.188;2023-08-12T06:58:41;29.15;;;27.20;;
9208;SDS011;4639;48.862;9.188;2023-08-12T07:01:07;26.80;;;24.90;;
9208;SDS011;4639;48.862;9.188;2023-08-12T07:03:32;28.83;;;26.63;;
9208;SDS011;4639;48.862;9.188;2023-08-12T07:05:58;26.88;;;25.00;;
9208;SDS011;4639;48.862;9.188;2023-08-12T07:08:24;32.85;;;30.73;;
9208;SDS011;4639;48.862;9.188;2023-08-12T07:10:49;31.38;;;28.98;;
9208;SDS011;4639;48.862;9.188;2023-08-12T07:13:15;31.52;;;29.42;;
9208;SDS011;4639;48.862;9.188;2023-08-12T07:15:40;32.50;;;30.48;;
9208;SDS011;4639;48.862;9.188;2023-08-12T07:18:06;33.90;;;31.52;;
9208;SDS011;4639;48.862;9.188;2023-08-12T07:20:32;32.95;;;30.85;;
9208;SDS011;4639;48.862;9.188;2023-08-12T07:22:58;23.13;;;21.33;;
9208;SDS011;4639;48.862;9.188;2023-08-12T07:25:23;19.33;;;17.98;;
9208;SDS011;4639;48.862;9.188;2023-08-12T07:27:49;16.48;;;15.07;;
9208;SDS011;4639;48.862;9.188;2023-08-12T07:30:14;13.23;;;12.13;;
9208;SDS011;4639;48.862;9.188;2023-08-12T07:32:40;15.32;;;13.95;;
9208;SDS011;4639;48.862;9.188;2023-08-12T07:35:06;26.80;;;24.95;;
9208;SDS011;4639;48.862;9.188;2023-08-12T07:37:32;43.30;;;40.20;;
9208;SDS011;4639;48.862;9.188;2023-08-12T07:39:57;36.50;;;34.20;;
9208;SDS011;4639;48.862;9.188;2023-08-12T07:42:23;53.78;;;50.42;;
9208;SDS011;4639;48.862;9.188;2023-08-12T07:44:48;56.85;;;53.33;;
9208;SDS011;4639;48.862;9.188;2023-08-12T07:47:14;53.65;;;50.35;;
9208;SDS011;4639;48.862;9.188;2023-08-12T07:49:40;80.88;;;75.85;;
9208;SDS011;4639;48.862;9.188;2023-08-12T07:52:06;80.63;;;75.88;;
9208;SDS011;4639;48.862;9.188;2023-08-12T07:54:32;63.95;;;60.10;;
9208;SDS011;4639;48.862;9.188;2023-08-12T07:56:57;75.90;;;71.40;;
9208;SDS011;4639;48.862;9.188;2023-08-12T07:59:23;65.60;;;61.78;;
9208;SDS011;4639;48.862;9.188;2023-08-12T08:01:48;77.82;;;73.03;;
9208;SDS011;4639;48.862;9.188;2023-08-12T08:04:14;67.32;;;63.40;;
9208;SDS011;4639;48.862;9.188;2023-08-12T08:06:39;61.90;;;58.17;;
9208;SDS011;4639;48.862;9.188;2023-08-12T08:09:05;45.75;;;43.00;;
9208;SDS011;4639;48.862;9.188;2023-08-12T08:11:31;28.90;;;27.10;;
9208;SDS011;4639;48.862;9.188;2023-08-12T08:13:57;22.45;;;20.83;;
9208;SDS011;4639;48.862;9.188;2023-08-12T08:16:23;21.00;;;19.33;;
9208;SDS011;4639;48.862;9.188;2023-08-12T08:18:49;18.15;;;16.85;;
9208;SDS011;4639;48.862;9.188;2023-08-12T08:21:15;16.17;;;14.98;;
9208;SDS011;4639;48.862;9.188;2023-08-12T08:23:41;18.80;;;17.27;;
9208;SDS011;4639;48.862;9.188;2023-08-12T08:26:07;12.93;;;12.02;;
9208;SDS011;4639;48.862;9.188;2023-08-12T08:28:33;11.65;;;10.55;;
9208;SDS011;4639;48.862;9.188;2023-08-12T08:30:59;11.82;;;10.85;;
9208;SDS011;4639;48.862;9.188;2023-08-12T08:33:25;11.00;;;10.10;;
9208;SDS011;4639;48.862;9.188;2023-08-12T08:35:51;10.63;;;9.68;;
9208;SDS011;4639;48.862;9.188;2023-08-12T08:38:18;11.88;;;11.00;;
9208;SDS011;4639;48.862;9.188;2023-08-12T08:40:43;11.45;;;10.55;;
9208;SDS011;4639;48.862;9.188;2023-08-12T08:43:09;12.18;;;11.05;;
9208;SDS011;4639;48.862;9.188;2023-08-12T08:45:35;13.38;;;12.30;;
9208;SDS011;4639;48.862;9.188;2023-08-12T08:48:02;12.30;;;11.30;;
9208;SDS011;4639;48.862;9.188;2023-08-12T08:50:31;15.15;;;13.95;;
9208;SDS011;4639;48.862;9.188;2023-08-12T08:52:57;15.13;;;14.00;;
9208;SDS011;4639;48.862;9.188;2023-08-12T08:55:24;12.25;;;11.13;;
9208;SDS011;4639;48.862;9.188;2023-08-12T08:57:50;10.18;;;9.43;;
9208;SDS011;4639;48.862;9.188;2023-08-12T09:00:17;11.88;;;10.30;;
9208;SDS011;4639;48.862;9.188;2023-08-12T09:02:45;11.23;;;10.40;;
9208;SDS011;4639;48.862;9.188;2023-08-12T09:05:12;13.20;;;12.20;;
9208;SDS011;4639;48.862;9.188;2023-08-12T09:07:39;12.13;;;11.35;;
9208;SDS011;4639;48.862;9.188;2023-08-12T09:10:07;12.70;;;11.65;;
9208;SDS011;4639;48.862;9.188;2023-08-12T09:12:33;9.13;;;8.35;;
9208;SDS011;4639;48.862;9.188;2023-08-12T09:14:59;11.38;;;10.57;;
9208;SDS011;4639;48.862;9.188;2023-08-12T09:17:24;11.98;;;11.05;;
9208;SDS011;4639;48.862;9.188;2023-08-12T09:19:51;13.93;;;12.82;;
9208;SDS011;4639;48.862;9.188;2023-08-12T09:22:17;12.13;;;11.32;;
9208;SDS011;4639;48.862;9.188;2023-08-12T09:24:43;16.90;;;15.70;;
9208;SDS011;4639;48.862;9.188;2023-08-12T09:27:09;13.90;;;13.00;;
9208;SDS011;4639;48.862;9.188;2023-08-12T09:29:35;16.95;;;15.85;;
9208;SDS011;4639;48.862;9.188;2023-08-12T09:34:37;16.77;;;15.50;;
9208;SDS011;4639;48.862;9.188;2023-08-12T09:37:03;15.13;;;13.73;;
9208;SDS011;4639;48.862;9.188;2023-08-12T09:39:29;23.25;;;21.55;;
9208;SDS011;4639;48.862;9.188;2023-08-12T09:41:58;24.00;;;22.35;;
9208;SDS011;4639;48.862;9.188;2023-08-12T09:44:24;44.05;;;40.95;;
9208;SDS011;4639;48.862;9.188;2023-08-12T09:46:56;34.38;;;32.08;;
9208;SDS011;4639;48.862;9.188;2023-08-12T09:49:22;40.78;;;38.17;;
9208;SDS011;4639;48.862;9.188;2023-08-12T09:51:48;30.95;;;28.90;;
9208;SDS011;4639;48.862;9.188;2023-08-12T09:54:15;52.35;;;49.15;;
9208;SDS011;4639;48.862;9.188;2023-08-12T09:56:42;61.30;;;56.90;;
9208;SDS011;4639;48.862;9.188;2023-08-12T09:59:09;42.47;;;39.78;;
9208;SDS011;4639;48.862;9.188;2023-08-12T10:01:36;33.25;;;31.23;;
9208;SDS011;4639;48.862;9.188;2023-08-12T10:04:03;61.72;;;57.67;;
9208;SDS011;4639;48.862;9.188;2023-08-12T10:06:36;35.25;;;33.17;;
9208;SDS011;4639;48.862;9.188;2023-08-12T10:09:03;39.38;;;36.80;;
9208;SDS011;4639;48.862;9.188;2023-08-12T10:11:30;23.98;;;22.33;;
9208;SDS011;4639;48.862;9.188;2023-08-12T10:13:56;17.23;;;16.13;;
9208;SDS011;4639;48.862;9.188;2023-08-12T10:16:21;22.52;;;21.15;;
9208;SDS011;4639;48.862;9.188;2023-08-12T10:18:48;16.63;;;15.52;;
9208;SDS011;4639;48.862;9.188;2023-08-12T10:21:15;20.70;;;19.30;;
9208;SDS011;4639;48.862;9.188;2023-08-12T10:23:42;16.73;;;15.40;;
9208;SDS011;4639;48.862;9.188;2023-08-12T10:26:08;20.77;;;19.17;;
9208;SDS011;4639;48.862;9.188;2023-08-12T10:28:34;25.42;;;23.75;;
9208;SDS011;4639;48.862;9.188;2023-08-12T10:31:03;30.10;;;28.15;;
9208;SDS011;4639;48.862;9.188;2023-08-12T10:33:30;19.70;;;18.45;;
9208;SDS011;4639;48.862;9.188;2023-08-12T10:35:59;22.85;;;21.02;;
9208;SDS011;4639;48.862;9.188;2023-08-12T10:38:25;15.10;;;14.05;;
9208;SDS011;4639;48.862;9.188;2023-08-12T10:40:51;17.95;;;16.60;;
9208;SDS011;4639;48.862;9.188;2023-08-12T10:43:17;26.85;;;25.05;;
9208;SDS011;4639;48.862;9.188;2023-08-12T10:45:47;16.88;;;15.77;;
9208;SDS011;4639;48.862;9.188;2023-08-12T10:50:52;42.63;;;39.92;;
9208;SDS011;4639;48.862;9.188;2023-08-12T10:53:27;24.33;;;22.80;;
9208;SDS011;4639;48.862;9.188;2023-08-12T10:55:58;45.83;;;43.03;;
9208;SDS011;4639;48.862;9.188;2023-08-12T10:58:28;45.60;;;42.53;;
9208;SDS011;4639;48.862;9.188;2023-08-12T11:00:56;58.50;;;53.72;;
9208;SDS011;4639;48.862;9.188;2023-08-12T11:03:22;28.70;;;26.98;;
9208;SDS011;4639;48.862;9.188;2023-08-12T11:05:48;29.42;;;27.63;;
9208;SDS011;4639;48.862;9.188;2023-08-12T11:08:13;27.23;;;25.52;;
9208;SDS011;4639;48.862;9.188;2023-08-12T11:10:39;21.38;;;19.98;;
9208;SDS011;4639;48.862;9.188;2023-08-12T11:13:05;16.02;;;15.00;;
9208;SDS011;4639;48.862;9.188;2023-08-12T11:15:37;31.83;;;29.45;;
9208;SDS011;4639;48.862;9.188;2023-08-12T11:18:16;24.80;;;22.95;;
9208;SDS011;4639;48.862;9.188;2023-08-12T11:20:43;65.40;;;60.67;;
9208;SDS011;4639;48.862;9.188;2023-08-12T11:23:10;56.97;;;53.03;;
9208;SDS011;4639;48.862;9.188;2023-08-12T11:25:36;37.85;;;35.42;;
9208;SDS011;4639;48.862;9.188;2023-08-12T11:28:06;38.13;;;35.15;;
9208;SDS011;4639;48.862;9.188;2023-08-12T11:30:32;25.63;;;23.73;;
9208;SDS011;4639;48.862;9.188;2023-08-12T11:32:59;36.42;;;33.72;;
9208;SDS011;4639;48.862;9.188;2023-08-12T11:35:26;50.75;;;47.30;;
9208;SDS011;4639;48.862;9.188;2023-08-12T11:37:52;17.73;;;16.42;;
9208;SDS011;4639;48.862;9.188;2023-08-12T11:40:21;10.00;;;9.20;;
9208;SDS011;4639;48.862;9.188;2023-08-12T11:42:47;135.15;;;122.47;;
9208;SDS011;4639;48.862;9.188;2023-08-12T11:45:16;99.18;;;91.22;;
9208;SDS011;4639;48.862;9.188;2023-08-12T11:47:43;44.60;;;41.63;;
9208;SDS011;4639;48.862;9.188;2023-08-12T11:50:10;59.45;;;55.28;;
9208;SDS011;4639;48.862;9.188;2023-08-12T11:52:36;36.45;;;34.28;;
9208;SDS011;4639;48.862;9.188;2023-08-12T11:55:03;285.95;;;259.33;;
9208;SDS011;4639;48.862;9.188;2023-08-12T11:57:30;280.17;;;257.10;;
9208;SDS011;4639;48.862;9.188;2023-08-12T11:59:59;189.45;;;174.07;;
9208;SDS011;4639;48.862;9.188;2023-08-12T12:02:26;204.00;;;188.10;;
9208;SDS011;4639;48.862;9.188;2023-08-12T12:04:52;135.20;;;126.82;;
9208;SDS011;4639;48.862;9.188;2023-08-12T12:07:21;205.23;;;189.38;;
9208;SDS011;4639;48.862;9.188;2023-08-12T12:09:52;69.40;;;64.97;;
9208;SDS011;4639;48.862;9.188;2023-08-12T12:12:24;90.45;;;84.97;;
9208;SDS011;4639;48.862;9.188;2023-08-12T12:14:50;153.68;;;144.05;;
9208;SDS011;4639;48.862;9.188;2023-08-12T12:17:21;150.80;;;140.95;;
9208;SDS011;4639;48.862;9.188;2023-08-12T12:19:51;289.40;;;266.00;;
9208;SDS011;4639;48.862;9.188;2023-08-12T12:22:18;248.35;;;230.55;;
9208;SDS011;4639;48.862;9.188;2023-08-12T12:24:47;238.18;;;221.93;;
9208;SDS011;4639;48.862;9.188;2023-08-12T12:27:13;152.50;;;143.07;;
9208;SDS011;4639;48.862;9.188;2023-08-12T12:29:38;160.85;;;150.68;;
9208;SDS011;4639;48.862;9.188;2023-08-12T12:32:04;138.43;;;129.77;;
9208;SDS011;4639;48.862;9.188;2023-08-12T12:34:30;141.82;;;132.73;;
9208;SDS011;4639;48.862;9.188;2023-08-12T12:36:56;207.63;;;193.73;;
9208;SDS011;4639;48.862;9.188;2023-08-12T12:39:21;155.18;;;144.70;;
9208;SDS011;4639;48.862;9.188;2023-08-12T12:41:48;149.95;;;140.27;;
9208;SDS011;4639;48.862;9.188;2023-08-12T12:44:14;120.55;;;112.63;;
9208;SDS011;4639;48.862;9.188;2023-08-12T12:46:39;103.65;;;97.78;;
9208;SDS011;4639;48.862;9.188;2023-08-12T12:49:05;92.85;;;87.40;;
9208;SDS011;4639;48.862;9.188;2023-08-12T12:51:31;89.43;;;84.10;;
9208;SDS011;4639;48.862;9.188;2023-08-12T12:53:56;110.40;;;103.35;;
9208;SDS011;4639;48.862;9.188;2023-08-12T12:56:22;117.40;;;110.28;;
9208;SDS011;4639;48.862;9.188;2023-08-12T12:58:48;114.53;;;107.97;;
9208;SDS011;4639;48.862;9.188;2023-08-12T13:01:13;123.75;;;116.40;;
9208;SDS011;4639;48.862;9.188;2023-08-12T13:03:39;113.43;;;106.75;;
9208;SDS011;4639;48.862;9.188;2023-08-12T13:06:05;139.95;;;131.48;;
9208;SDS011;4639;48.862;9.188;2023-08-12T13:08:30;157.57;;;147.43;;
9208;SDS011;4639;48.862;9.188;2023-08-12T13:10:56;112.85;;;106.20;;
9208;SDS011;4639;48.862;9.188;2023-08-12T13:13:22;113.80;;;106.68;;
9208;SDS011;4639;48.862;9.188;2023-08-12T13:15:48;172.63;;;161.63;;
9208;SDS011;4639;48.862;9.188;2023-08-12T13:18:14;230.68;;;216.20;;
9208;SDS011;4639;48.862;9.188;2023-08-12T13:20:39;162.73;;;152.00;;
9208;SDS011;4639;48.862;9.188;2023-08-12T13:23:05;173.13;;;161.30;;
9208;SDS011;4639;48.862;9.188;2023-08-12T13:25:31;237.77;;;222.05;;
9208;SDS011;4639;48.862;9.188;2023-08-12T13:27:58;220.23;;;205.65;;
9208;SDS011;4639;48.862;9.188;2023-08-12T13:30:28;219.30;;;205.02;;
9208;SDS011;4639;48.862;9.188;2023-08-12T13:32:54;191.55;;;179.32;;
9208;SDS011;4639;48.862;9.188;2023-08-12T13:35:20;179.85;;;168.48;;
9208;SDS011;4639;48.862;9.188;2023-08-12T13:37:46;172.45;;;161.75;;
9208;SDS011;4639;48.862;9.188;2023-08-12T13:40:12;167.18;;;157.02;;
9208;SDS011;4639;48.862;9.188;2023-08-12T13:42:39;161.45;;;151.63;;
9208;SDS011;4639;48.862;9.188;2023-08-12T13:45:06;162.90;;;152.77;;
9208;SDS011;4639;48.862;9.188;2023-08-12T13:47:33;152.77;;;143.18;;
9208;SDS011;4639;48.862;9.188;2023-08-12T13:49:59;153.23;;;143.55;;
9208;SDS011;4639;48.862;9.188;2023-08-12T13:52:25;136.68;;;128.40;;
9208;SDS011;4639;48.862;9.188;2023-08-12T13:54:50;141.75;;;133.02;;
9208;SDS011;4639;48.862;9.188;2023-08-12T13:57:16;59.90;;;56.20;;
9208;SDS011;4639;48.862;9.188;2023-08-12T13:59:41;54.58;;;51.22;;
9208;SDS011;4639;48.862;9.188;2023-08-12T14:02:09;65.20;;;61.25;;
9208;SDS011;4639;48.862;9.188;2023-08-12T14:04:38;60.38;;;56.67;;
9208;SDS011;4639;48.862;9.188;2023-08-12T14:07:03;40.63;;;38.22;;
9208;SDS011;4639;48.862;9.188;2023-08-12T14:09:29;37.55;;;35.15;;
9208;SDS011;4639;48.862;9.188;2023-08-12T14:11:55;48.92;;;46.05;;
9208;SDS011;4639;48.862;9.188;2023-08-12T14:14:21;33.60;;;31.70;;
9208;SDS011;4639;48.862;9.188;2023-08-12T14:16:48;30.55;;;28.73;;
9208;SDS011;4639;48.862;9.188;2023-08-12T14:19:13;66.15;;;62.30;;
9208;SDS011;4639;48.862;9.188;2023-08-12T14:21:41;64.40;;;60.55;;
9208;SDS011;4639;48.862;9.188;2023-08-12T14:24:07;57.03;;;53.72;;
9208;SDS011;4639;48.862;9.188;2023-08-12T14:26:33;57.03;;;53.78;;
9208;SDS011;4639;48.862;9.188;2023-08-12T14:28:59;47.83;;;44.88;;
9208;SDS011;4639;48.862;9.188;2023-08-12T14:31:25;37.40;;;35.17;;
9208;SDS011;4639;48.862;9.188;2023-08-12T14:33:51;51.55;;;48.53;;
9208;SDS011;4639;48.862;9.188;2023-08-12T14:36:16;52.50;;;49.58;;
9208;SDS011;4639;48.862;9.188;2023-08-12T14:38:42;81.15;;;76.35;;